createdAt,value
2023-03-29T00:00:44.520Z,20.44
2023-03-29T00:01:46.722Z,20.41
2023-03-29T00:02:48.363Z,20.48
2023-03-29T00:03:51.060Z,20.43
2023-03-29T00:04:53.254Z,20.47
2023-03-29T00:05:54.705Z,20.41
2023-03-29T00:06:56.099Z,20.48
2023-03-29T00:07:57.493Z,20.47
2023-03-29T00:08:58.882Z,20.44
2023-03-29T00:10:01.128Z,20.43
2023-03-29T00:11:03.645Z,20.39
2023-03-29T00:12:06.060Z,20.41
2023-03-29T00:13:08.255Z,20.50
2023-03-29T00:14:09.708Z,20.47
2023-03-29T00:15:11.961Z,20.40
2023-03-29T00:16:14.238Z,20.48
2023-03-29T00:17:15.616Z,20.47
2023-03-29T00:18:17.851Z,20.47
2023-03-29T00:19:19.250Z,20.43
2023-03-29T00:20:21.500Z,20.39
2023-03-29T00:21:23.704Z,20.44
2023-03-29T00:22:25.985Z,20.44
2023-03-29T00:23:27.359Z,20.39
2023-03-29T00:24:29.559Z,20.41
2023-03-29T00:25:31.803Z,20.41
2023-03-29T00:26:34.000Z,20.41
2023-03-29T00:27:35.388Z,20.40
2023-03-29T00:28:37.648Z,20.39
2023-03-29T00:29:39.842Z,20.39
2023-03-29T00:30:42.079Z,20.43
2023-03-29T00:31:43.506Z,20.40
2023-03-29T00:32:44.982Z,20.40
2023-03-29T00:33:46.356Z,20.39
2023-03-29T00:34:47.748Z,20.40
2023-03-29T00:35:50.026Z,20.37
2023-03-29T00:36:51.452Z,20.43
2023-03-29T00:37:53.763Z,20.34
2023-03-29T00:38:55.967Z,20.39
2023-03-29T00:39:58.207Z,20.41
2023-03-29T00:41:00.642Z,20.47
2023-03-29T00:42:02.670Z,20.39
2023-03-29T00:43:04.918Z,20.40
2023-03-29T00:44:07.121Z,20.36
2023-03-29T00:45:08.567Z,20.40
2023-03-29T00:46:10.804Z,20.40
2023-03-29T00:47:13.040Z,20.36
2023-03-29T00:48:15.241Z,20.37
2023-03-29T00:49:16.677Z,20.39
2023-03-29T00:50:18.897Z,20.39
2023-03-29T00:51:20.288Z,20.36
2023-03-29T00:52:21.682Z,20.39
2023-03-29T00:53:23.931Z,20.39
2023-03-29T00:54:26.176Z,20.37
2023-03-29T00:55:28.428Z,20.40
2023-03-29T00:56:30.621Z,20.32
2023-03-29T00:57:32.862Z,20.40
2023-03-29T00:58:34.283Z,20.34
2023-03-29T00:59:36.471Z,20.31
2023-03-29T01:00:37.871Z,20.39
2023-03-29T01:01:39.309Z,20.37
2023-03-29T01:02:41.636Z,20.34
2023-03-29T01:03:43.126Z,20.32
2023-03-29T01:04:44.545Z,20.26
2023-03-29T01:05:46.735Z,20.31
2023-03-29T01:06:48.180Z,20.34
2023-03-29T01:07:50.379Z,20.31
2023-03-29T01:08:51.767Z,20.37
2023-03-29T01:09:53.172Z,20.39
2023-03-29T01:10:54.567Z,20.26
2023-03-29T01:11:55.954Z,20.31
2023-03-29T01:12:57.353Z,20.36
2023-03-29T01:13:59.562Z,20.29
2023-03-29T01:15:01.031Z,20.31
2023-03-29T01:16:02.467Z,20.36
2023-03-29T01:17:04.737Z,20.32
2023-03-29T01:18:06.203Z,20.32
2023-03-29T01:19:07.607Z,20.39
2023-03-29T01:20:09.002Z,20.36
2023-03-29T01:21:11.327Z,20.36
2023-03-29T01:22:12.717Z,20.37
2023-03-29T01:23:14.965Z,20.32
2023-03-29T01:24:16.367Z,20.36
2023-03-29T01:25:17.814Z,20.36
2023-03-29T01:26:19.262Z,20.31
2023-03-29T01:27:20.660Z,20.32
2023-03-29T01:28:21.247Z,20.32
2023-03-29T01:29:22.736Z,20.31
2023-03-29T01:30:24.113Z,20.28
2023-03-29T01:31:25.560Z,20.34
2023-03-29T01:32:26.209Z,20.37
2023-03-29T01:33:26.828Z,20.32
2023-03-29T01:34:27.423Z,20.22
2023-03-29T01:35:28.030Z,20.25
2023-03-29T01:36:28.696Z,20.28
2023-03-29T01:37:29.305Z,20.41
2023-03-29T01:38:29.883Z,20.31
2023-03-29T01:39:30.634Z,20.32
2023-03-29T01:40:31.229Z,20.32
2023-03-29T01:41:32.672Z,20.31
2023-03-29T01:42:33.269Z,20.31
2023-03-29T01:43:34.716Z,20.31
2023-03-29T01:44:35.427Z,20.28
2023-03-29T01:45:36.824Z,20.28
2023-03-29T01:46:38.382Z,20.31
2023-03-29T01:47:39.889Z,20.31
2023-03-29T01:48:40.527Z,20.26
2023-03-29T01:49:41.921Z,20.22
2023-03-29T01:50:42.562Z,20.31
2023-03-29T01:51:43.958Z,20.26
2023-03-29T01:52:44.570Z,20.29
2023-03-29T01:53:45.222Z,20.29
2023-03-29T01:54:45.821Z,20.31
2023-03-29T01:55:47.222Z,20.29
2023-03-29T01:56:47.847Z,20.29
2023-03-29T01:57:49.312Z,20.31
2023-03-29T01:58:50.722Z,20.31
2023-03-29T01:59:51.382Z,20.31
2023-03-29T02:00:51.982Z,20.28
2023-03-29T02:01:52.635Z,20.29
2023-03-29T02:02:53.368Z,20.28
2023-03-29T02:03:54.782Z,20.31
2023-03-29T02:04:55.385Z,20.32
2023-03-29T02:05:56.788Z,20.31
2023-03-29T02:06:57.390Z,20.31
2023-03-29T02:07:57.985Z,20.31
2023-03-29T02:08:58.588Z,20.26
2023-03-29T02:09:59.182Z,20.34
2023-03-29T02:11:00.814Z,20.25
2023-03-29T02:12:02.366Z,20.34
2023-03-29T02:13:03.754Z,20.34
2023-03-29T02:14:05.205Z,20.34
2023-03-29T02:15:05.808Z,20.31
2023-03-29T02:16:07.354Z,20.31
2023-03-29T02:17:07.905Z,20.34
2023-03-29T02:18:08.566Z,20.34
2023-03-29T02:19:10.077Z,20.26
2023-03-29T02:20:11.523Z,20.34
2023-03-29T02:21:12.968Z,20.34
2023-03-29T02:22:14.444Z,20.29
2023-03-29T02:23:15.111Z,20.32
2023-03-29T02:24:15.759Z,20.25
2023-03-29T02:25:17.203Z,20.29
2023-03-29T02:26:17.798Z,20.25
2023-03-29T02:27:18.391Z,20.31
2023-03-29T02:28:18.990Z,20.29
2023-03-29T02:29:19.574Z,20.31
2023-03-29T02:30:21.045Z,20.26
2023-03-29T02:31:21.705Z,20.29
2023-03-29T02:32:22.285Z,20.29
2023-03-29T02:33:22.882Z,20.25
2023-03-29T02:34:24.276Z,20.28
2023-03-29T02:35:25.712Z,20.19
2023-03-29T02:36:27.117Z,20.29
2023-03-29T02:37:27.704Z,20.28
2023-03-29T02:38:28.300Z,20.22
2023-03-29T02:39:28.904Z,20.29
2023-03-29T02:40:29.494Z,20.26
2023-03-29T02:41:30.145Z,20.26
2023-03-29T02:42:31.547Z,20.26
2023-03-29T02:43:32.145Z,20.19
2023-03-29T02:44:32.784Z,20.26
2023-03-29T02:45:33.382Z,20.21
2023-03-29T02:46:34.033Z,20.25
2023-03-29T02:47:34.730Z,20.21
2023-03-29T02:48:36.164Z,20.21
2023-03-29T02:49:37.604Z,20.22
2023-03-29T02:50:38.257Z,20.24
2023-03-29T02:51:39.641Z,20.25
2023-03-29T02:52:41.080Z,20.19
2023-03-29T02:53:41.682Z,20.32
2023-03-29T02:54:43.171Z,20.24
2023-03-29T02:55:44.605Z,20.24
2023-03-29T02:56:46.076Z,20.22
2023-03-29T02:57:47.483Z,20.22
2023-03-29T02:58:48.887Z,20.18
2023-03-29T02:59:50.409Z,20.24
2023-03-29T03:00:51.799Z,20.22
2023-03-29T03:03:18.381Z,20.19
2023-03-29T03:04:19.767Z,20.18
2023-03-29T03:05:21.167Z,20.18
2023-03-29T03:06:21.822Z,20.24
2023-03-29T03:07:23.217Z,20.18
2023-03-29T03:08:23.818Z,20.14
2023-03-29T03:09:24.414Z,20.28
2023-03-29T03:10:25.812Z,20.25
2023-03-29T03:11:26.415Z,20.11
2023-03-29T03:12:27.018Z,20.21
2023-03-29T03:13:27.611Z,20.28
2023-03-29T03:14:29.054Z,20.25
2023-03-29T03:15:30.455Z,20.29
2023-03-29T03:16:31.911Z,20.18
2023-03-29T03:17:32.592Z,20.24
2023-03-29T03:18:33.200Z,20.28
2023-03-29T03:19:34.656Z,20.21
2023-03-29T03:20:35.242Z,20.21
2023-03-29T03:21:36.631Z,20.13
2023-03-29T03:22:38.128Z,20.16
2023-03-29T03:23:38.736Z,20.21
2023-03-29T03:24:39.394Z,20.10
2023-03-29T03:25:40.848Z,20.19
2023-03-29T03:26:42.245Z,20.14
2023-03-29T03:27:42.848Z,20.18
2023-03-29T03:28:44.301Z,20.16
2023-03-29T03:29:45.745Z,20.14
2023-03-29T03:30:46.338Z,20.22
2023-03-29T03:31:47.825Z,20.18
2023-03-29T03:32:49.321Z,20.16
2023-03-29T03:33:50.771Z,20.14
2023-03-29T03:34:51.357Z,20.16
2023-03-29T03:35:51.987Z,20.18
2023-03-29T03:36:52.608Z,20.13
2023-03-29T03:37:53.210Z,20.22
2023-03-29T03:38:54.607Z,20.22
2023-03-29T03:39:56.118Z,20.16
2023-03-29T03:40:56.710Z,20.18
2023-03-29T03:41:58.104Z,20.22
2023-03-29T03:42:58.709Z,20.22
2023-03-29T03:44:00.166Z,20.16
2023-03-29T03:45:01.639Z,20.18
2023-03-29T03:46:02.335Z,20.22
2023-03-29T03:47:03.728Z,20.16
2023-03-29T03:48:05.165Z,20.18
2023-03-29T03:49:06.612Z,20.16
2023-03-29T03:50:07.360Z,20.18
2023-03-29T03:51:07.958Z,20.21
2023-03-29T03:52:09.414Z,20.13
2023-03-29T03:53:10.069Z,20.16
2023-03-29T03:54:10.671Z,20.21
2023-03-29T03:55:12.122Z,20.22
2023-03-29T03:56:12.766Z,20.22
2023-03-29T03:57:14.233Z,20.13
2023-03-29T03:58:15.719Z,20.16
2023-03-29T03:59:17.180Z,20.14
2023-03-29T04:00:17.873Z,20.16
2023-03-29T04:01:19.322Z,20.25
2023-03-29T04:02:20.828Z,20.18
2023-03-29T04:03:21.528Z,20.14
2023-03-29T04:04:23.188Z,20.14
2023-03-29T04:05:23.799Z,20.14
2023-03-29T04:06:24.400Z,20.18
2023-03-29T04:07:24.994Z,20.14
2023-03-29T04:08:26.395Z,20.14
2023-03-29T04:09:27.849Z,20.21
2023-03-29T04:10:28.438Z,20.13
2023-03-29T04:11:29.086Z,20.14
2023-03-29T04:12:29.700Z,20.19
2023-03-29T04:13:30.351Z,20.18
2023-03-29T04:14:31.791Z,20.13
2023-03-29T04:15:32.422Z,20.18
2023-03-29T04:16:33.819Z,20.19
2023-03-29T04:17:34.519Z,20.19
2023-03-29T04:18:35.340Z,20.18
2023-03-29T04:19:36.017Z,20.14
2023-03-29T04:20:36.609Z,20.21
2023-03-29T04:21:37.204Z,20.16
2023-03-29T04:22:38.656Z,20.13
2023-03-29T04:23:40.099Z,20.16
2023-03-29T04:24:41.545Z,20.14
2023-03-29T04:25:42.993Z,20.19
2023-03-29T04:26:43.598Z,20.19
2023-03-29T04:27:44.187Z,20.18
2023-03-29T04:28:44.782Z,20.19
2023-03-29T04:29:46.277Z,20.14
2023-03-29T04:30:47.711Z,20.14
2023-03-29T04:31:49.243Z,20.18
2023-03-29T04:32:50.762Z,20.18
2023-03-29T04:33:51.351Z,20.16
2023-03-29T04:34:52.759Z,20.19
2023-03-29T04:35:54.225Z,20.16
2023-03-29T04:36:54.819Z,20.04
2023-03-29T04:37:55.424Z,20.13
2023-03-29T04:38:56.007Z,20.16
2023-03-29T04:39:56.602Z,20.19
2023-03-29T04:40:57.206Z,20.18
2023-03-29T04:41:58.703Z,20.18
2023-03-29T04:43:00.166Z,20.13
2023-03-29T04:44:01.586Z,20.14
2023-03-29T04:45:03.008Z,20.07
2023-03-29T04:46:03.639Z,20.19
2023-03-29T04:47:04.245Z,20.16
2023-03-29T04:48:05.732Z,20.13
2023-03-29T04:49:07.230Z,20.07
2023-03-29T04:50:08.670Z,20.18
2023-03-29T04:51:10.189Z,20.16
2023-03-29T04:52:10.817Z,20.21
2023-03-29T04:53:11.425Z,20.06
2023-03-29T04:54:12.888Z,20.11
2023-03-29T04:55:14.274Z,20.11
2023-03-29T04:56:14.915Z,20.14
2023-03-29T04:57:16.423Z,20.18
2023-03-29T04:58:17.814Z,20.11
2023-03-29T04:59:19.493Z,20.11
2023-03-29T05:00:20.074Z,20.16
2023-03-29T05:01:21.549Z,20.16
2023-03-29T05:02:23.031Z,20.14
2023-03-29T05:03:23.658Z,20.04
2023-03-29T05:04:25.102Z,20.14
2023-03-29T05:05:25.744Z,20.14
2023-03-29T05:06:27.255Z,20.11
2023-03-29T05:07:27.850Z,20.16
2023-03-29T05:08:28.450Z,20.16
2023-03-29T05:09:29.054Z,20.18
2023-03-29T05:10:29.655Z,20.13
2023-03-29T05:11:30.247Z,20.13
2023-03-29T05:12:31.647Z,20.09
2023-03-29T05:13:32.373Z,20.14
2023-03-29T05:14:32.972Z,20.14
2023-03-29T05:15:33.625Z,20.18
2023-03-29T05:16:34.313Z,20.13
2023-03-29T05:17:35.792Z,20.02
2023-03-29T05:18:37.221Z,20.14
2023-03-29T05:19:38.622Z,20.13
2023-03-29T05:20:39.224Z,20.06
2023-03-29T05:21:41.071Z,20.14
2023-03-29T05:22:42.284Z,20.13
2023-03-29T05:23:42.876Z,20.16
2023-03-29T05:24:43.486Z,20.16
2023-03-29T05:25:44.084Z,20.04
2023-03-29T05:26:44.827Z,20.02
2023-03-29T05:27:46.260Z,20.16
2023-03-29T05:28:46.851Z,20.06
2023-03-29T05:29:47.453Z,20.18
2023-03-29T05:30:48.925Z,20.03
2023-03-29T05:31:49.556Z,20.09
2023-03-29T05:32:51.063Z,20.06
2023-03-29T05:33:52.520Z,20.10
2023-03-29T05:34:53.972Z,20.03
2023-03-29T05:35:55.549Z,20.13
2023-03-29T05:36:56.964Z,20.11
2023-03-29T05:37:57.564Z,20.04
2023-03-29T05:38:58.167Z,20.10
2023-03-29T05:40:05.825Z,20.13
2023-03-29T05:41:00.538Z,20.16
2023-03-29T05:42:01.246Z,20.06
2023-03-29T05:43:01.902Z,20.16
2023-03-29T05:44:02.581Z,20.06
2023-03-29T05:45:03.191Z,20.11
2023-03-29T05:46:03.841Z,20.16
2023-03-29T05:47:04.554Z,20.04
2023-03-29T05:48:05.202Z,20.04
2023-03-29T05:49:05.802Z,20.13
2023-03-29T05:50:07.205Z,20.04
2023-03-29T05:51:07.800Z,20.03
2023-03-29T05:52:09.247Z,20.14
2023-03-29T05:53:10.637Z,20.16
2023-03-29T05:54:12.031Z,20.18
2023-03-29T05:55:13.484Z,20.02
2023-03-29T05:56:14.084Z,20.09
2023-03-29T05:57:15.541Z,20.18
2023-03-29T05:58:16.940Z,20.07
2023-03-29T05:59:17.559Z,20.16
2023-03-29T06:00:19.069Z,20.18
2023-03-29T06:01:20.475Z,20.16
2023-03-29T06:02:21.182Z,20.09
2023-03-29T06:03:22.882Z,20.14
2023-03-29T06:04:23.808Z,20.02
2023-03-29T06:05:25.258Z,20.03
2023-03-29T06:06:26.711Z,20.04
2023-03-29T06:07:27.350Z,20.09
2023-03-29T06:08:28.748Z,20.03
2023-03-29T06:09:29.350Z,20.04
2023-03-29T06:10:30.802Z,20.03
2023-03-29T06:11:31.418Z,20.02
2023-03-29T06:12:32.866Z,20.13
2023-03-29T06:13:34.310Z,20.18
2023-03-29T06:14:35.776Z,20.06
2023-03-29T06:15:37.158Z,20.06
2023-03-29T06:16:40.734Z,20.06
2023-03-29T06:17:40.224Z,20.03
2023-03-29T06:18:41.703Z,20.06
2023-03-29T06:19:43.097Z,20.03
2023-03-29T06:20:43.691Z,20.03
2023-03-29T06:21:44.299Z,20.10
2023-03-29T06:22:44.952Z,20.04
2023-03-29T06:23:46.407Z,20.09
2023-03-29T06:24:47.972Z,20.06
2023-03-29T06:25:49.374Z,20.09
2023-03-29T06:26:49.977Z,20.07
2023-03-29T06:27:50.569Z,20.07
2023-03-29T06:28:52.418Z,20.09
2023-03-29T06:29:53.601Z,20.06
2023-03-29T06:30:54.307Z,20.00
2023-03-29T06:31:55.078Z,20.06
2023-03-29T06:32:56.609Z,20.07
2023-03-29T06:33:58.060Z,20.02
2023-03-29T06:34:59.563Z,20.06
2023-03-29T06:36:01.007Z,20.02
2023-03-29T06:37:01.603Z,20.04
2023-03-29T06:38:02.255Z,20.03
2023-03-29T06:39:03.700Z,20.04
2023-03-29T06:40:05.145Z,20.04
2023-03-29T06:41:05.739Z,20.04
2023-03-29T06:42:20.153Z,20.04
2023-03-29T06:43:08.792Z,20.07
2023-03-29T06:44:09.392Z,20.06
2023-03-29T06:45:09.986Z,20.07
2023-03-29T06:46:10.600Z,20.04
2023-03-29T06:47:11.198Z,20.04
2023-03-29T06:48:12.590Z,20.02
2023-03-29T06:49:13.986Z,20.00
2023-03-29T06:50:15.431Z,20.06
2023-03-29T06:51:16.038Z,20.03
2023-03-29T06:52:17.497Z,20.10
2023-03-29T06:53:18.953Z,20.09
2023-03-29T06:54:19.595Z,20.04
2023-03-29T06:55:20.999Z,20.09
2023-03-29T06:56:21.603Z,20.09
2023-03-29T06:57:23.065Z,20.09
2023-03-29T06:58:23.671Z,20.07
2023-03-29T06:59:25.146Z,20.06
2023-03-29T07:00:26.621Z,20.03
2023-03-29T07:01:27.235Z,20.10
2023-03-29T07:02:27.942Z,20.03
2023-03-29T07:03:29.407Z,20.03
2023-03-29T07:04:30.874Z,20.04
2023-03-29T07:05:32.318Z,20.10
2023-03-29T07:06:32.921Z,20.10
2023-03-29T07:07:33.596Z,20.03
2023-03-29T07:08:35.048Z,20.03
2023-03-29T07:09:35.669Z,20.02
2023-03-29T07:10:36.283Z,20.04
2023-03-29T07:11:36.868Z,20.09
2023-03-29T07:12:37.462Z,20.04
2023-03-29T07:13:38.855Z,20.06
2023-03-29T07:14:39.506Z,20.09
2023-03-29T07:15:40.098Z,20.04
2023-03-29T07:16:40.796Z,20.06
2023-03-29T07:17:42.354Z,20.06
2023-03-29T07:18:43.124Z,20.00
2023-03-29T07:19:44.426Z,20.06
2023-03-29T07:20:45.027Z,20.04
2023-03-29T07:21:46.480Z,20.09
2023-03-29T07:22:47.920Z,20.07
2023-03-29T07:23:48.525Z,20.07
2023-03-29T07:24:49.118Z,20.03
2023-03-29T07:25:49.733Z,20.10
2023-03-29T07:27:03.151Z,20.07
2023-03-29T07:27:52.714Z,20.06
2023-03-29T07:28:54.186Z,20.03
2023-03-29T07:29:54.772Z,20.09
2023-03-29T07:30:56.216Z,20.07
2023-03-29T07:31:57.673Z,20.03
2023-03-29T07:32:58.374Z,20.02
2023-03-29T07:33:58.980Z,20.06
2023-03-29T07:35:00.447Z,20.07
2023-03-29T07:36:02.012Z,20.10
2023-03-29T07:37:03.507Z,20.09
2023-03-29T07:38:04.110Z,20.04
2023-03-29T07:39:05.544Z,20.07
2023-03-29T07:40:06.139Z,20.10
2023-03-29T07:41:07.589Z,20.06
2023-03-29T07:42:09.049Z,20.04
2023-03-29T07:43:10.440Z,20.00
2023-03-29T07:44:11.035Z,20.04
2023-03-29T07:45:11.694Z,20.03
2023-03-29T07:46:12.307Z,20.07
2023-03-29T07:47:13.711Z,20.03
2023-03-29T07:48:14.346Z,19.99
2023-03-29T07:49:14.982Z,20.10
2023-03-29T07:50:15.582Z,20.04
2023-03-29T07:51:17.030Z,20.07
2023-03-29T07:52:17.634Z,20.03
2023-03-29T07:53:18.262Z,20.04
2023-03-29T07:54:18.865Z,20.06
2023-03-29T07:55:20.373Z,20.07
2023-03-29T07:56:20.961Z,20.09
2023-03-29T07:57:21.577Z,20.06
2023-03-29T07:58:22.206Z,20.07
2023-03-29T07:59:23.716Z,20.06
2023-03-29T08:00:24.367Z,20.09
2023-03-29T08:01:25.860Z,20.09
2023-03-29T08:02:27.376Z,20.02
2023-03-29T08:03:28.922Z,20.04
2023-03-29T08:04:30.505Z,20.02
2023-03-29T08:05:40.523Z,20.10
2023-03-29T08:06:33.623Z,20.02
2023-03-29T08:07:35.019Z,20.03
2023-03-29T08:08:36.525Z,20.03
2023-03-29T08:09:37.127Z,20.09
2023-03-29T08:10:37.742Z,20.10
2023-03-29T08:11:38.390Z,20.07
2023-03-29T08:12:38.997Z,20.06
2023-03-29T08:13:40.505Z,20.06
2023-03-29T08:14:41.901Z,20.09
2023-03-29T08:15:43.407Z,20.10
2023-03-29T08:16:44.023Z,20.10
2023-03-29T08:17:44.711Z,20.03
2023-03-29T08:18:45.318Z,20.06
2023-03-29T08:19:51.844Z,20.07
2023-03-29T08:20:48.351Z,20.07
2023-03-29T08:21:48.996Z,20.03
2023-03-29T08:22:49.598Z,20.10
2023-03-29T08:23:51.064Z,20.10
2023-03-29T08:24:51.654Z,20.09
2023-03-29T08:25:52.265Z,20.02
2023-03-29T08:26:53.667Z,20.04
2023-03-29T08:27:55.106Z,20.09
2023-03-29T08:28:55.698Z,20.11
2023-03-29T08:29:56.304Z,20.04
2023-03-29T08:30:57.859Z,20.04
2023-03-29T08:31:58.456Z,20.03
2023-03-29T08:32:59.939Z,20.03
2023-03-29T08:34:01.392Z,20.03
2023-03-29T08:35:02.012Z,20.04
2023-03-29T08:36:03.549Z,20.07
2023-03-29T08:37:05.036Z,20.10
2023-03-29T08:38:06.486Z,20.06
2023-03-29T08:39:07.926Z,20.06
2023-03-29T08:40:09.373Z,20.07
2023-03-29T08:41:09.970Z,20.03
2023-03-29T08:42:10.563Z,20.04
2023-03-29T08:43:11.155Z,20.07
2023-03-29T08:44:11.752Z,20.03
2023-03-29T08:45:12.348Z,20.03
2023-03-29T08:46:13.054Z,20.00
2023-03-29T08:47:13.674Z,20.02
2023-03-29T08:48:15.124Z,20.06
2023-03-29T08:49:16.577Z,20.10
2023-03-29T08:50:18.049Z,20.03
2023-03-29T08:51:19.539Z,20.03
2023-03-29T08:52:21.047Z,20.02
2023-03-29T08:53:22.440Z,20.04
2023-03-29T08:54:23.037Z,20.06
2023-03-29T08:55:24.436Z,20.06
2023-03-29T08:56:25.046Z,20.03
2023-03-29T08:57:26.564Z,20.18
2023-03-29T08:58:28.024Z,20.16
2023-03-29T08:59:29.477Z,20.04
2023-03-29T09:00:30.864Z,20.04
2023-03-29T09:01:31.480Z,20.03
2023-03-29T09:02:32.185Z,20.10
2023-03-29T09:03:33.804Z,20.10
2023-03-29T09:04:35.315Z,20.11
2023-03-29T09:05:36.721Z,20.04
2023-03-29T09:06:38.115Z,20.04
2023-03-29T09:07:38.715Z,20.09
2023-03-29T09:08:39.386Z,20.18
2023-03-29T09:09:40.771Z,20.16
2023-03-29T09:10:42.166Z,20.13
2023-03-29T09:11:43.622Z,20.13
2023-03-29T09:12:45.041Z,20.16
2023-03-29T09:13:45.710Z,20.11
2023-03-29T09:14:46.344Z,20.03
2023-03-29T09:15:47.762Z,20.16
2023-03-29T09:16:48.369Z,20.18
2023-03-29T09:17:49.706Z,20.19
2023-03-29T09:18:50.516Z,20.18
2023-03-29T09:19:51.970Z,20.22
2023-03-29T09:20:53.374Z,20.18
2023-03-29T09:21:54.032Z,20.21
2023-03-29T09:22:54.646Z,20.16
2023-03-29T09:23:56.094Z,20.16
2023-03-29T09:24:56.695Z,20.21
2023-03-29T09:25:58.098Z,20.21
2023-03-29T09:26:59.502Z,20.18
2023-03-29T09:28:00.947Z,20.13
2023-03-29T09:29:01.542Z,20.25
2023-03-29T09:30:02.159Z,20.16
2023-03-29T09:31:04.060Z,20.18
2023-03-29T09:32:05.023Z,20.19
2023-03-29T09:33:05.699Z,20.16
2023-03-29T09:34:07.083Z,20.21
2023-03-29T09:35:07.698Z,20.18
2023-03-29T09:36:09.208Z,20.19
2023-03-29T09:37:09.798Z,20.21
2023-03-29T09:38:10.440Z,20.16
2023-03-29T09:39:11.047Z,20.18
2023-03-29T09:40:12.530Z,20.16
2023-03-29T09:41:13.176Z,20.13
2023-03-29T09:42:13.778Z,20.16
2023-03-29T09:43:14.371Z,20.19
2023-03-29T09:45:17.279Z,20.22
2023-03-29T09:46:17.954Z,20.19
2023-03-29T09:47:19.402Z,20.18
2023-03-29T09:48:20.965Z,20.21
2023-03-29T09:49:22.367Z,20.14
2023-03-29T09:50:30.865Z,20.22
2023-03-29T09:51:26.215Z,20.14
2023-03-29T09:52:27.630Z,20.19
2023-03-29T09:53:29.033Z,20.19
2023-03-29T09:54:29.629Z,20.18
2023-03-29T09:55:31.041Z,20.18
2023-03-29T09:56:31.828Z,20.21
2023-03-29T09:57:32.426Z,20.18
2023-03-29T09:58:33.827Z,20.16
2023-03-29T09:59:35.229Z,20.19
2023-03-29T10:00:35.833Z,20.18
2023-03-29T10:01:37.316Z,20.28
2023-03-29T10:02:37.950Z,20.14
2023-03-29T10:03:38.582Z,20.18
2023-03-29T10:04:39.231Z,20.16
2023-03-29T10:05:40.689Z,20.13
2023-03-29T10:06:41.285Z,20.11
2023-03-29T10:07:41.951Z,20.21
2023-03-29T10:08:43.343Z,20.18
2023-03-29T10:09:44.782Z,20.11
2023-03-29T10:10:46.196Z,20.28
2023-03-29T10:11:47.635Z,20.13
2023-03-29T10:12:49.042Z,20.26
2023-03-29T10:13:49.637Z,20.22
2023-03-29T10:14:53.065Z,20.16
2023-03-29T10:15:52.680Z,20.16
2023-03-29T10:16:53.323Z,20.19
2023-03-29T10:17:54.000Z,20.24
2023-03-29T10:18:55.483Z,20.22
2023-03-29T10:19:56.956Z,20.18
2023-03-29T10:20:57.595Z,20.24
2023-03-29T10:21:58.198Z,20.11
2023-03-29T10:22:59.698Z,20.28
2023-03-29T10:24:00.297Z,20.18
2023-03-29T10:25:00.927Z,20.22
2023-03-29T10:26:02.390Z,20.21
2023-03-29T10:27:02.986Z,20.25
2023-03-29T10:28:04.441Z,20.22
2023-03-29T10:29:05.844Z,20.28
2023-03-29T10:30:06.458Z,20.19
2023-03-29T10:31:07.073Z,20.18
2023-03-29T10:32:08.520Z,20.22
2023-03-29T10:33:10.029Z,20.24
2023-03-29T10:34:11.528Z,20.22
2023-03-29T10:35:12.922Z,20.28
2023-03-29T10:36:13.597Z,20.31
2023-03-29T10:37:15.003Z,20.19
2023-03-29T10:38:15.597Z,20.25
2023-03-29T10:39:16.198Z,20.28
2023-03-29T10:40:17.673Z,20.25
2023-03-29T10:41:18.254Z,20.29
2023-03-29T10:42:18.909Z,20.22
2023-03-29T10:43:20.359Z,20.22
2023-03-29T10:44:20.963Z,20.26
2023-03-29T10:45:21.568Z,20.24
2023-03-29T10:46:23.113Z,20.28
2023-03-29T10:47:24.617Z,20.29
2023-03-29T10:48:25.217Z,20.29
2023-03-29T10:49:25.872Z,20.21
2023-03-29T10:50:26.475Z,20.25
2023-03-29T10:51:27.920Z,20.29
2023-03-29T10:52:29.322Z,20.31
2023-03-29T10:53:30.710Z,20.26
2023-03-29T10:54:32.113Z,20.31
2023-03-29T10:55:33.521Z,20.31
2023-03-29T10:56:34.121Z,20.24
2023-03-29T10:57:34.807Z,20.29
2023-03-29T10:58:36.288Z,20.29
2023-03-29T10:59:37.732Z,20.29
2023-03-29T11:00:38.332Z,20.29
2023-03-29T11:01:39.031Z,20.31
2023-03-29T11:02:39.840Z,20.24
2023-03-29T11:03:41.507Z,20.32
2023-03-29T11:04:42.145Z,20.34
2023-03-29T11:05:43.636Z,20.28
2023-03-29T11:06:45.045Z,20.34
2023-03-29T11:07:45.640Z,20.29
2023-03-29T11:08:46.301Z,20.29
2023-03-29T11:09:47.704Z,20.32
2023-03-29T11:10:49.192Z,20.24
2023-03-29T11:11:51.524Z,20.37
2023-03-29T11:12:52.234Z,20.29
2023-03-29T11:13:53.635Z,20.32
2023-03-29T11:14:54.235Z,20.31
2023-03-29T11:15:54.868Z,20.34
2023-03-29T11:16:55.454Z,20.34
2023-03-29T11:17:56.923Z,20.34
2023-03-29T11:18:57.552Z,20.29
2023-03-29T11:19:58.148Z,20.31
2023-03-29T11:20:58.757Z,20.26
2023-03-29T11:22:00.257Z,20.26
2023-03-29T11:23:00.921Z,20.32
2023-03-29T11:24:02.376Z,20.28
2023-03-29T11:25:03.798Z,20.28
2023-03-29T11:26:04.444Z,20.31
2023-03-29T11:27:05.838Z,20.31
2023-03-29T11:28:07.293Z,20.28
2023-03-29T11:29:07.900Z,20.26
2023-03-29T11:30:09.344Z,20.26
2023-03-29T11:31:10.107Z,20.29
2023-03-29T11:32:11.532Z,20.31
2023-03-29T11:33:12.302Z,20.36
2023-03-29T11:34:12.894Z,20.29
2023-03-29T11:35:14.350Z,20.31
2023-03-29T11:36:15.836Z,20.31
2023-03-29T11:37:17.282Z,20.29
2023-03-29T11:38:18.683Z,20.32
2023-03-29T11:39:19.489Z,20.31
2023-03-29T11:40:20.947Z,20.25
2023-03-29T11:41:21.583Z,20.29
2023-03-29T11:42:22.979Z,20.25
2023-03-29T11:43:23.586Z,20.31
2023-03-29T11:44:24.189Z,20.32
2023-03-29T11:45:24.782Z,20.31
2023-03-29T11:46:26.200Z,20.31
2023-03-29T11:47:27.724Z,20.28
2023-03-29T11:48:29.133Z,20.31
2023-03-29T11:49:30.537Z,20.31
2023-03-29T11:50:31.135Z,20.34
2023-03-29T11:51:32.551Z,20.37
2023-03-29T11:52:34.004Z,20.26
2023-03-29T11:53:35.402Z,20.31
2023-03-29T11:54:35.996Z,20.32
2023-03-29T11:55:36.607Z,20.28
2023-03-29T11:56:37.205Z,20.37
2023-03-29T11:57:38.624Z,20.28
2023-03-29T11:58:40.054Z,20.26
2023-03-29T11:59:40.665Z,20.31
2023-03-29T12:00:42.050Z,20.28
2023-03-29T12:01:42.700Z,20.34
2023-03-29T12:02:44.214Z,20.31
2023-03-29T12:03:46.855Z,20.31
2023-03-29T12:04:47.269Z,20.29
2023-03-29T12:05:48.719Z,20.32
2023-03-29T12:06:50.194Z,20.31
2023-03-29T12:07:51.589Z,20.31
2023-03-29T12:08:52.993Z,20.29
2023-03-29T12:09:53.600Z,20.31
2023-03-29T12:10:54.272Z,20.26
2023-03-29T12:11:54.868Z,20.32
2023-03-29T12:12:56.270Z,20.25
2023-03-29T12:13:57.666Z,20.28
2023-03-29T12:14:59.077Z,20.31
2023-03-29T12:16:00.525Z,20.25
2023-03-29T12:17:02.111Z,20.29
2023-03-29T12:18:02.673Z,20.29
2023-03-29T12:19:03.262Z,20.29
2023-03-29T12:20:03.865Z,20.34
2023-03-29T12:21:05.462Z,20.32
2023-03-29T12:22:06.226Z,20.36
2023-03-29T12:23:06.842Z,20.29
2023-03-29T12:24:07.431Z,20.32
2023-03-29T12:25:09.683Z,20.34
2023-03-29T12:26:09.621Z,20.37
2023-03-29T12:27:10.221Z,20.40
2023-03-29T12:28:10.826Z,20.32
2023-03-29T12:29:12.273Z,20.31
2023-03-29T12:30:13.675Z,20.36
2023-03-29T12:31:14.297Z,20.36
2023-03-29T12:32:15.886Z,20.39
2023-03-29T12:33:17.405Z,20.36
2023-03-29T12:34:18.033Z,20.32
2023-03-29T12:35:19.490Z,20.36
2023-03-29T12:36:20.158Z,20.37
2023-03-29T12:37:20.749Z,20.31
2023-03-29T12:38:21.344Z,20.40
2023-03-29T12:39:22.000Z,20.36
2023-03-29T12:40:23.456Z,20.41
2023-03-29T12:41:24.919Z,20.40
2023-03-29T12:42:26.369Z,20.32
2023-03-29T12:43:27.813Z,20.32
2023-03-29T12:44:28.466Z,20.37
2023-03-29T12:45:29.070Z,20.32
2023-03-29T12:46:29.733Z,20.40
2023-03-29T12:47:30.392Z,20.39
2023-03-29T12:48:31.056Z,20.41
2023-03-29T12:49:32.514Z,20.39
2023-03-29T12:50:33.111Z,20.37
2023-03-29T12:51:34.554Z,20.41
2023-03-29T12:52:35.160Z,20.40
2023-03-29T12:53:36.635Z,20.37
2023-03-29T12:54:38.085Z,20.31
2023-03-29T12:55:38.741Z,20.41
2023-03-29T12:56:40.252Z,20.39
2023-03-29T12:57:41.644Z,20.41
2023-03-29T12:58:42.243Z,20.36
2023-03-29T12:59:42.840Z,20.40
2023-03-29T13:00:44.409Z,20.34
2023-03-29T13:01:45.827Z,20.44
2023-03-29T13:02:46.600Z,20.40
2023-03-29T13:03:48.022Z,20.44
2023-03-29T13:04:49.516Z,20.36
2023-03-29T13:05:51.014Z,20.41
2023-03-29T13:06:54.151Z,20.43
2023-03-29T13:07:54.040Z,20.39
2023-03-29T13:08:55.493Z,20.40
2023-03-29T13:09:56.978Z,20.48